sensor_id;sensor_type;location;lat;lon;timestamp;pressure;altitude;pressure_sealevel;temperature
47484;BMP280;54076;50.322;18.650;2023-02-28T00:04:20;99166.98;;;-3.55
47484;BMP280;54076;50.322;18.650;2023-02-28T00:09:21;99160.27;;;-3.49
47484;BMP280;54076;50.322;18.650;2023-02-28T00:14:22;99155.27;;;-3.53
47484;BMP280;54076;50.322;18.650;2023-02-28T00:19:23;99160.30;;;-3.54
47484;BMP280;54076;50.322;18.650;2023-02-28T00:24:24;99155.33;;;-3.51
47484;BMP280;54076;50.322;18.650;2023-02-28T00:29:25;99160.31;;;-3.49
47484;BMP280;54076;50.322;18.650;2023-02-28T00:34:27;99165.95;;;-3.67
47484;BMP280;54076;50.322;18.650;2023-02-28T00:39:28;99170.04;;;-3.60
47484;BMP280;54076;50.322;18.650;2023-02-28T00:44:30;99171.00;;;-3.71
47484;BMP280;54076;50.322;18.650;2023-02-28T00:49:31;99166.98;;;-3.95
47484;BMP280;54076;50.322;18.650;2023-02-28T00:54:33;99167.90;;;-3.86
47484;BMP280;54076;50.322;18.650;2023-02-28T00:59:34;99173.42;;;-3.71
47484;BMP280;54076;50.322;18.650;2023-02-28T01:04:36;99171.90;;;-3.91
47484;BMP280;54076;50.322;18.650;2023-02-28T01:09:37;99173.02;;;-3.79
47484;BMP280;54076;50.322;18.650;2023-02-28T01:14:38;99171.84;;;-3.93
47484;BMP280;54076;50.322;18.650;2023-02-28T01:19:39;99170.84;;;-3.87
47484;BMP280;54076;50.322;18.650;2023-02-28T01:24:40;99172.77;;;-3.71
47484;BMP280;54076;50.322;18.650;2023-02-28T01:29:41;99166.33;;;-3.98
47484;BMP280;54076;50.322;18.650;2023-02-28T01:34:42;99162.44;;;-4.12
47484;BMP280;54076;50.322;18.650;2023-02-28T01:39:44;99159.00;;;-4.17
47484;BMP280;54076;50.322;18.650;2023-02-28T01:45:30;99151.83;;;-4.14
47484;BMP280;54076;50.322;18.650;2023-02-28T01:50:36;99152.80;;;-4.18
47484;BMP280;54076;50.322;18.650;2023-02-28T01:55:40;99150.79;;;-4.23
47484;BMP280;54076;50.322;18.650;2023-02-28T02:00:43;99155.57;;;-4.25
47484;BMP280;54076;50.322;18.650;2023-02-28T02:05:45;99146.23;;;-4.29
47484;BMP280;54076;50.322;18.650;2023-02-28T02:10:59;99143.59;;;-4.46
47484;BMP280;54076;50.322;18.650;2023-02-28T02:33:15;99146.48;;;-4.41
47484;BMP280;54076;50.322;18.650;2023-02-28T02:38:57;99147.13;;;-4.32
47484;BMP280;54076;50.322;18.650;2023-02-28T02:49:28;99136.93;;;-4.79
47484;BMP280;54076;50.322;18.650;2023-02-28T02:54:37;99140.71;;;-4.73
47484;BMP280;54076;50.322;18.650;2023-02-28T02:59:42;99146.33;;;-4.77
47484;BMP280;54076;50.322;18.650;2023-02-28T03:04:50;99142.09;;;-4.91
47484;BMP280;54076;50.322;18.650;2023-02-28T03:09:54;99145.95;;;-4.98
47484;BMP280;54076;50.322;18.650;2023-02-28T03:20:44;99150.77;;;-5.20
47484;BMP280;54076;50.322;18.650;2023-02-28T03:26:09;99151.61;;;-5.38
47484;BMP280;54076;50.322;18.650;2023-02-28T03:31:50;99149.71;;;-5.35
47484;BMP280;54076;50.322;18.650;2023-02-28T03:37:04;99155.73;;;-5.18
47484;BMP280;54076;50.322;18.650;2023-02-28T03:42:18;99157.94;;;-5.13
47484;BMP280;54076;50.322;18.650;2023-02-28T03:47:29;99164.34;;;-5.27
47484;BMP280;54076;50.322;18.650;2023-02-28T03:52:38;99164.25;;;-5.17
47484;BMP280;54076;50.322;18.650;2023-02-28T04:02:57;99169.42;;;-5.50
47484;BMP280;54076;50.322;18.650;2023-02-28T04:08:08;99168.98;;;-5.46
47484;BMP280;54076;50.322;18.650;2023-02-28T04:13:09;99170.52;;;-5.63
47484;BMP280;54076;50.322;18.650;2023-02-28T04:18:10;99180.64;;;-5.66
47484;BMP280;54076;50.322;18.650;2023-02-28T04:23:11;99179.06;;;-5.51
47484;BMP280;54076;50.322;18.650;2023-02-28T04:28:12;99175.95;;;-5.64
47484;BMP280;54076;50.322;18.650;2023-02-28T04:33:14;99179.73;;;-5.73
47484;BMP280;54076;50.322;18.650;2023-02-28T04:38:15;99184.80;;;-5.74
47484;BMP280;54076;50.322;18.650;2023-02-28T04:43:16;99192.44;;;-5.63
47484;BMP280;54076;50.322;18.650;2023-02-28T04:48:17;99192.93;;;-5.75
47484;BMP280;54076;50.322;18.650;2023-02-28T04:53:18;99199.27;;;-5.80
47484;BMP280;54076;50.322;18.650;2023-02-28T04:58:20;99196.95;;;-5.80
47484;BMP280;54076;50.322;18.650;2023-02-28T05:03:23;99199.23;;;-5.73
47484;BMP280;54076;50.322;18.650;2023-02-28T05:08:25;99199.45;;;-5.73
47484;BMP280;54076;50.322;18.650;2023-02-28T05:13:27;99200.94;;;-5.67
47484;BMP280;54076;50.322;18.650;2023-02-28T05:18:29;99200.76;;;-5.73
47484;BMP280;54076;50.322;18.650;2023-02-28T05:23:30;99206.82;;;-5.70
47484;BMP280;54076;50.322;18.650;2023-02-28T05:28:31;99205.23;;;-5.93
47484;BMP280;54076;50.322;18.650;2023-02-28T05:33:33;99202.56;;;-6.02
47484;BMP280;54076;50.322;18.650;2023-02-28T05:38:34;99205.00;;;-6.14
47484;BMP280;54076;50.322;18.650;2023-02-28T05:43:36;99212.92;;;-6.07
47484;BMP280;54076;50.322;18.650;2023-02-28T05:48:39;99216.02;;;-6.24
47484;BMP280;54076;50.322;18.650;2023-02-28T05:53:41;99227.19;;;-6.16
47484;BMP280;54076;50.322;18.650;2023-02-28T05:58:42;99230.92;;;-6.29
47484;BMP280;54076;50.322;18.650;2023-02-28T06:03:43;99229.95;;;-6.43
47484;BMP280;54076;50.322;18.650;2023-02-28T06:08:44;99237.17;;;-6.42
47484;BMP280;54076;50.322;18.650;2023-02-28T06:13:46;99240.85;;;-6.38
47484;BMP280;54076;50.322;18.650;2023-02-28T06:18:47;99246.23;;;-6.33
47484;BMP280;54076;50.322;18.650;2023-02-28T06:23:49;99254.23;;;-6.31
47484;BMP280;54076;50.322;18.650;2023-02-28T06:28:50;99258.84;;;-6.23
47484;BMP280;54076;50.322;18.650;2023-02-28T06:33:52;99265.52;;;-6.06
47484;BMP280;54076;50.322;18.650;2023-02-28T06:38:53;99262.78;;;-6.24
47484;BMP280;54076;50.322;18.650;2023-02-28T06:43:56;99270.98;;;-6.02
47484;BMP280;54076;50.322;18.650;2023-02-28T06:48:57;99272.89;;;-5.75
47484;BMP280;54076;50.322;18.650;2023-02-28T06:53:59;99278.73;;;-6.04
47484;BMP280;54076;50.322;18.650;2023-02-28T06:59:00;99277.28;;;-5.96
47484;BMP280;54076;50.322;18.650;2023-02-28T07:04:01;99283.46;;;-5.87
47484;BMP280;54076;50.322;18.650;2023-02-28T07:09:03;99281.50;;;-5.67
47484;BMP280;54076;50.322;18.650;2023-02-28T07:14:04;99285.62;;;-5.70
47484;BMP280;54076;50.322;18.650;2023-02-28T07:19:06;99285.62;;;-5.31
47484;BMP280;54076;50.322;18.650;2023-02-28T07:24:07;99289.06;;;-5.22
47484;BMP280;54076;50.322;18.650;2023-02-28T07:29:08;99290.13;;;-4.91
47484;BMP280;54076;50.322;18.650;2023-02-28T07:34:09;99292.30;;;-4.85
47484;BMP280;54076;50.322;18.650;2023-02-28T07:39:10;99296.40;;;-4.68
47484;BMP280;54076;50.322;18.650;2023-02-28T07:44:12;99296.02;;;-4.29
47484;BMP280;54076;50.322;18.650;2023-02-28T07:49:13;99295.84;;;-4.50
47484;BMP280;54076;50.322;18.650;2023-02-28T07:54:14;99295.82;;;-4.08
47484;BMP280;54076;50.322;18.650;2023-02-28T07:59:15;99299.73;;;-3.44
47484;BMP280;54076;50.322;18.650;2023-02-28T08:04:18;99297.41;;;-3.16
47484;BMP280;54076;50.322;18.650;2023-02-28T08:09:19;99290.14;;;-3.93
47484;BMP280;54076;50.322;18.650;2023-02-28T08:14:20;99292.48;;;-4.17
47484;BMP280;54076;50.322;18.650;2023-02-28T08:19:21;99293.40;;;-3.35
47484;BMP280;54076;50.322;18.650;2023-02-28T08:24:23;99301.97;;;-3.25
47484;BMP280;54076;50.322;18.650;2023-02-28T08:29:24;99301.93;;;-3.27
47484;BMP280;54076;50.322;18.650;2023-02-28T08:34:25;99294.14;;;-3.46
47484;BMP280;54076;50.322;18.650;2023-02-28T08:39:26;99302.12;;;-3.31
47484;BMP280;54076;50.322;18.650;2023-02-28T08:44:28;99305.27;;;-3.30
47484;BMP280;54076;50.322;18.650;2023-02-28T08:49:29;99303.81;;;-3.32
47484;BMP280;54076;50.322;18.650;2023-02-28T08:54:30;99308.34;;;-2.91
47484;BMP280;54076;50.322;18.650;2023-02-28T08:59:32;99309.69;;;-2.76
47484;BMP280;54076;50.322;18.650;2023-02-28T09:04:34;99306.52;;;-3.02
47484;BMP280;54076;50.322;18.650;2023-02-28T09:09:35;99308.61;;;-2.61
47484;BMP280;54076;50.322;18.650;2023-02-28T09:14:36;99307.15;;;-2.40
47484;BMP280;54076;50.322;18.650;2023-02-28T09:19:37;99308.41;;;-2.32
47484;BMP280;54076;50.322;18.650;2023-02-28T09:24:38;99307.65;;;-2.15
47484;BMP280;54076;50.322;18.650;2023-02-28T09:29:40;99305.89;;;-2.06
47484;BMP280;54076;50.322;18.650;2023-02-28T09:34:41;99305.54;;;-2.11
47484;BMP280;54076;50.322;18.650;2023-02-28T09:39:42;99306.86;;;-1.98
47484;BMP280;54076;50.322;18.650;2023-02-28T09:44:45;99311.11;;;-2.01
47484;BMP280;54076;50.322;18.650;2023-02-28T09:49:48;99312.86;;;-1.90
47484;BMP280;54076;50.322;18.650;2023-02-28T09:54:50;99307.59;;;-1.98
47484;BMP280;54076;50.322;18.650;2023-02-28T10:00:05;99310.27;;;-1.69
47484;BMP280;54076;50.322;18.650;2023-02-28T10:05:17;99315.30;;;-1.90
47484;BMP280;54076;50.322;18.650;2023-02-28T10:15:44;99322.77;;;-1.62
47484;BMP280;54076;50.322;18.650;2023-02-28T10:20:47;99309.58;;;-1.92
47484;BMP280;54076;50.322;18.650;2023-02-28T10:26:14;99311.73;;;-1.23
47484;BMP280;54076;50.322;18.650;2023-02-28T10:31:20;99312.06;;;-0.75
47484;BMP280;54076;50.322;18.650;2023-02-28T10:36:22;99300.45;;;-1.18
47484;BMP280;54076;50.322;18.650;2023-02-28T10:46:32;99302.25;;;-1.80
47484;BMP280;54076;50.322;18.650;2023-02-28T10:51:39;99296.51;;;-1.35
47484;BMP280;54076;50.322;18.650;2023-02-28T10:56:41;99300.40;;;-1.56
47484;BMP280;54076;50.322;18.650;2023-02-28T11:01:45;99301.97;;;-1.07
47484;BMP280;54076;50.322;18.650;2023-02-28T11:12:17;99312.84;;;2.01
47484;BMP280;54076;50.322;18.650;2023-02-28T11:17:24;99310.14;;;2.82
47484;BMP280;54076;50.322;18.650;2023-02-28T11:22:30;99305.29;;;3.63
47484;BMP280;54076;50.322;18.650;2023-02-28T11:27:53;99297.02;;;3.07
47484;BMP280;54076;50.322;18.650;2023-02-28T11:32:55;99285.67;;;2.28
47484;BMP280;54076;50.322;18.650;2023-02-28T11:37:57;99283.18;;;4.01
47484;BMP280;54076;50.322;18.650;2023-02-28T12:05:45;99257.06;;;3.98
47484;BMP280;54076;50.322;18.650;2023-02-28T12:26:57;99245.42;;;6.03
47484;BMP280;54076;50.322;18.650;2023-02-28T12:37:17;99236.71;;;3.34
47484;BMP280;54076;50.322;18.650;2023-02-28T12:42:30;99233.23;;;5.54
47484;BMP280;54076;50.322;18.650;2023-02-28T12:47:32;99226.79;;;4.73
47484;BMP280;54076;50.322;18.650;2023-02-28T12:58:33;99214.13;;;4.42
47484;BMP280;54076;50.322;18.650;2023-02-28T13:09:09;99211.15;;;5.93
47484;BMP280;54076;50.322;18.650;2023-02-28T13:14:26;99203.01;;;3.75
47484;BMP280;54076;50.322;18.650;2023-02-28T13:19:33;99201.52;;;4.46
47484;BMP280;54076;50.322;18.650;2023-02-28T13:24:42;99199.22;;;4.34
47484;BMP280;54076;50.322;18.650;2023-02-28T13:29:43;99201.41;;;5.01
47484;BMP280;54076;50.322;18.650;2023-02-28T13:40:26;99184.74;;;2.72
47484;BMP280;54076;50.322;18.650;2023-02-28T13:45:29;99179.80;;;3.18
47484;BMP280;54076;50.322;18.650;2023-02-28T13:50:36;99182.48;;;4.24
47484;BMP280;54076;50.322;18.650;2023-02-28T14:01:22;99166.48;;;1.57
47484;BMP280;54076;50.322;18.650;2023-02-28T14:06:32;99159.20;;;0.65
47484;BMP280;54076;50.322;18.650;2023-02-28T14:11:37;99161.61;;;1.65
47484;BMP280;54076;50.322;18.650;2023-02-28T14:16:41;99152.20;;;1.35
47484;BMP280;54076;50.322;18.650;2023-02-28T14:22:18;99148.86;;;1.62
47484;BMP280;54076;50.322;18.650;2023-02-28T14:38:59;99125.20;;;-0.03
47484;BMP280;54076;50.322;18.650;2023-02-28T14:44:03;99127.67;;;0.77
47484;BMP280;54076;50.322;18.650;2023-02-28T14:49:23;99122.70;;;0.64
47484;BMP280;54076;50.322;18.650;2023-02-28T14:54:25;99116.66;;;0.10
47484;BMP280;54076;50.322;18.650;2023-02-28T14:59:33;99116.21;;;0.49
47484;BMP280;54076;50.322;18.650;2023-02-28T15:04:35;99117.46;;;0.39
47484;BMP280;54076;50.322;18.650;2023-02-28T15:09:36;99118.47;;;0.32
47484;BMP280;54076;50.322;18.650;2023-02-28T15:14:38;99118.40;;;0.31
47484;BMP280;54076;50.322;18.650;2023-02-28T15:19:51;99115.33;;;0.47
47484;BMP280;54076;50.322;18.650;2023-02-28T15:24:53;99110.13;;;-0.29
47484;BMP280;54076;50.322;18.650;2023-02-28T15:30:00;99115.61;;;-0.06
47484;BMP280;54076;50.322;18.650;2023-02-28T15:40:43;99113.58;;;-0.54
47484;BMP280;54076;50.322;18.650;2023-02-28T15:51:19;99111.44;;;-0.52
47484;BMP280;54076;50.322;18.650;2023-02-28T15:56:27;99109.55;;;-0.58
47484;BMP280;54076;50.322;18.650;2023-02-28T16:01:32;99118.58;;;-0.65
47484;BMP280;54076;50.322;18.650;2023-02-28T16:11:48;99117.90;;;-0.73
47484;BMP280;54076;50.322;18.650;2023-02-28T16:16:54;99127.20;;;-0.81
47484;BMP280;54076;50.322;18.650;2023-02-28T16:21:55;99126.25;;;-1.05
47484;BMP280;54076;50.322;18.650;2023-02-28T16:26:57;99127.91;;;-1.10
47484;BMP280;54076;50.322;18.650;2023-02-28T16:31:59;99128.33;;;-1.17
47484;BMP280;54076;50.322;18.650;2023-02-28T16:37:01;99130.71;;;-1.42
47484;BMP280;54076;50.322;18.650;2023-02-28T16:42:02;99132.27;;;-1.43
47484;BMP280;54076;50.322;18.650;2023-02-28T16:47:04;99134.22;;;-1.54
47484;BMP280;54076;50.322;18.650;2023-02-28T16:52:05;99136.86;;;-1.63
47484;BMP280;54076;50.322;18.650;2023-02-28T16:57:17;99138.54;;;-1.61
47484;BMP280;54076;50.322;18.650;2023-02-28T17:02:21;99143.88;;;-1.80
47484;BMP280;54076;50.322;18.650;2023-02-28T17:07:22;99144.44;;;-2.03
47484;BMP280;54076;50.322;18.650;2023-02-28T17:12:23;99149.77;;;-2.26
47484;BMP280;54076;50.322;18.650;2023-02-28T17:17:25;99153.01;;;-2.34
47484;BMP280;54076;50.322;18.650;2023-02-28T17:22:26;99155.42;;;-2.32
47484;BMP280;54076;50.322;18.650;2023-02-28T17:27:27;99156.52;;;-2.45
47484;BMP280;54076;50.322;18.650;2023-02-28T17:32:28;99155.89;;;-2.56
47484;BMP280;54076;50.322;18.650;2023-02-28T17:37:29;99156.10;;;-2.60
47484;BMP280;54076;50.322;18.650;2023-02-28T17:42:31;99156.08;;;-2.68
47484;BMP280;54076;50.322;18.650;2023-02-28T17:47:32;99156.88;;;-2.76
47484;BMP280;54076;50.322;18.650;2023-02-28T17:52:33;99157.14;;;-2.73
47484;BMP280;54076;50.322;18.650;2023-02-28T17:57:37;99156.69;;;-2.83
47484;BMP280;54076;50.322;18.650;2023-02-28T18:02:39;99151.84;;;-2.87
47484;BMP280;54076;50.322;18.650;2023-02-28T18:07:40;99155.02;;;-2.90
47484;BMP280;54076;50.322;18.650;2023-02-28T18:12:41;99154.63;;;-2.85
47484;BMP280;54076;50.322;18.650;2023-02-28T18:17:43;99157.20;;;-2.95
47484;BMP280;54076;50.322;18.650;2023-02-28T18:22:44;99159.33;;;-2.94
47484;BMP280;54076;50.322;18.650;2023-02-28T18:27:45;99154.45;;;-3.00
47484;BMP280;54076;50.322;18.650;2023-02-28T18:33:00;99161.13;;;-2.99
47484;BMP280;54076;50.322;18.650;2023-02-28T18:38:15;99156.22;;;-3.11
47484;BMP280;54076;50.322;18.650;2023-02-28T18:43:18;99157.16;;;-3.11
47484;BMP280;54076;50.322;18.650;2023-02-28T18:48:19;99159.86;;;-3.11
47484;BMP280;54076;50.322;18.650;2023-02-28T18:53:23;99159.45;;;-3.08
47484;BMP280;54076;50.322;18.650;2023-02-28T18:58:24;99154.98;;;-3.19
47484;BMP280;54076;50.322;18.650;2023-02-28T19:03:25;99157.18;;;-3.33
47484;BMP280;54076;50.322;18.650;2023-02-28T19:08:26;99161.36;;;-3.79
47484;BMP280;54076;50.322;18.650;2023-02-28T19:13:27;99163.83;;;-4.02
47484;BMP280;54076;50.322;18.650;2023-02-28T19:18:29;99158.83;;;-4.19
47484;BMP280;54076;50.322;18.650;2023-02-28T19:23:31;99161.64;;;-4.27
47484;BMP280;54076;50.322;18.650;2023-02-28T19:28:32;99159.96;;;-4.27
47484;BMP280;54076;50.322;18.650;2023-02-28T19:33:33;99159.74;;;-4.27
47484;BMP280;54076;50.322;18.650;2023-02-28T19:38:34;99162.98;;;-4.31
47484;BMP280;54076;50.322;18.650;2023-02-28T19:43:35;99167.50;;;-4.35
47484;BMP280;54076;50.322;18.650;2023-02-28T19:48:37;99165.05;;;-4.37
47484;BMP280;54076;50.322;18.650;2023-02-28T19:53:40;99170.06;;;-4.43
47484;BMP280;54076;50.322;18.650;2023-02-28T19:58:41;99167.51;;;-4.53
47484;BMP280;54076;50.322;18.650;2023-02-28T20:03:50;99161.51;;;-4.53
47484;BMP280;54076;50.322;18.650;2023-02-28T20:08:53;99163.09;;;-4.53
47484;BMP280;54076;50.322;18.650;2023-02-28T20:13:55;99164.45;;;-4.55
47484;BMP280;54076;50.322;18.650;2023-02-28T20:19:00;99163.50;;;-4.56
47484;BMP280;54076;50.322;18.650;2023-02-28T20:24:01;99167.14;;;-4.64
47484;BMP280;54076;50.322;18.650;2023-02-28T20:29:03;99165.94;;;-4.72
47484;BMP280;54076;50.322;18.650;2023-02-28T20:34:05;99166.23;;;-4.79
47484;BMP280;54076;50.322;18.650;2023-02-28T20:39:06;99168.83;;;-4.92
47484;BMP280;54076;50.322;18.650;2023-02-28T20:44:11;99164.38;;;-5.01
47484;BMP280;54076;50.322;18.650;2023-02-28T20:49:12;99163.89;;;-5.12
47484;BMP280;54076;50.322;18.650;2023-02-28T20:54:15;99157.73;;;-5.22
47484;BMP280;54076;50.322;18.650;2023-02-28T20:59:16;99160.26;;;-5.26
47484;BMP280;54076;50.322;18.650;2023-02-28T21:04:17;99158.60;;;-5.30
47484;BMP280;54076;50.322;18.650;2023-02-28T21:09:18;99153.12;;;-5.38
47484;BMP280;54076;50.322;18.650;2023-02-28T21:14:20;99153.70;;;-5.42
47484;BMP280;54076;50.322;18.650;2023-02-28T21:19:21;99156.53;;;-5.39
47484;BMP280;54076;50.322;18.650;2023-02-28T21:24:22;99149.12;;;-5.61
47484;BMP280;54076;50.322;18.650;2023-02-28T21:29:24;99153.95;;;-5.62
47484;BMP280;54076;50.322;18.650;2023-02-28T21:34:25;99154.55;;;-5.65
47484;BMP280;54076;50.322;18.650;2023-02-28T21:39:26;99159.78;;;-5.57
47484;BMP280;54076;50.322;18.650;2023-02-28T21:44:30;99159.78;;;-5.69
47484;BMP280;54076;50.322;18.650;2023-02-28T21:49:32;99162.15;;;-5.77
47484;BMP280;54076;50.322;18.650;2023-02-28T21:54:33;99158.99;;;-5.88
47484;BMP280;54076;50.322;18.650;2023-02-28T21:59:34;99162.70;;;-5.76
47484;BMP280;54076;50.322;18.650;2023-02-28T22:04:36;99164.17;;;-5.74
47484;BMP280;54076;50.322;18.650;2023-02-28T22:09:38;99168.91;;;-5.72
47484;BMP280;54076;50.322;18.650;2023-02-28T22:14:39;99176.81;;;-5.78
47484;BMP280;54076;50.322;18.650;2023-02-28T22:19:41;99179.36;;;-5.65
47484;BMP280;54076;50.322;18.650;2023-02-28T22:24:43;99175.92;;;-5.64
47484;BMP280;54076;50.322;18.650;2023-02-28T22:29:44;99170.38;;;-5.64
47484;BMP280;54076;50.322;18.650;2023-02-28T22:34:45;99177.74;;;-5.85
47484;BMP280;54076;50.322;18.650;2023-02-28T22:39:50;99187.64;;;-6.06
47484;BMP280;54076;50.322;18.650;2023-02-28T22:44:51;99191.68;;;-6.08
47484;BMP280;54076;50.322;18.650;2023-02-28T22:49:52;99187.10;;;-5.93
47484;BMP280;54076;50.322;18.650;2023-02-28T22:54:53;99187.77;;;-5.80
47484;BMP280;54076;50.322;18.650;2023-02-28T22:59:54;99191.81;;;-6.01
47484;BMP280;54076;50.322;18.650;2023-02-28T23:04:55;99191.89;;;-6.26
47484;BMP280;54076;50.322;18.650;2023-02-28T23:09:57;99195.44;;;-6.19
47484;BMP280;54076;50.322;18.650;2023-02-28T23:14:58;99200.52;;;-6.23
47484;BMP280;54076;50.322;18.650;2023-02-28T23:20:00;99199.15;;;-6.51
47484;BMP280;54076;50.322;18.650;2023-02-28T23:25:01;99208.44;;;-6.36
47484;BMP280;54076;50.322;18.650;2023-02-28T23:30:03;99207.52;;;-6.43
47484;BMP280;54076;50.322;18.650;2023-02-28T23:35:06;99198.89;;;-6.70
47484;BMP280;54076;50.322;18.650;2023-02-28T23:40:09;99198.61;;;-6.74
47484;BMP280;54076;50.322;18.650;2023-02-28T23:45:11;99196.91;;;-6.76
47484;BMP280;54076;50.322;18.650;2023-02-28T23:50:12;99190.59;;;-6.73
47484;BMP280;54076;50.322;18.650;2023-02-28T23:55:13;99190.07;;;-6.79
